| time (UTC) | temp F | wind direction | speed MPH | gust MPH | rain 1hr in | rain 24hr in | rain mn in | humidity % | barometer mb |
| 20260510230537 | 68 | 190 | 0.0 | 1.0 | 0.00 | 0.00 | 0.00 | 30 | 1021.6 |
| 20260510230034 | 68 | 221 | 0.0 | 2.0 | 0.00 | 0.00 | 0.00 | 30 | 1021.8 |
| 20260510225531 | 68 | 201 | 1.0 | 4.0 | 0.00 | 0.00 | 0.00 | 28 | 1021.8 |
| 20260510225026 | 68 | 251 | 0.0 | 1.0 | 0.00 | 0.00 | 0.00 | 30 | 1021.9 |
| 20260510224522 | 68 | 235 | 0.0 | 1.0 | 0.00 | 0.00 | 0.00 | 29 | 1021.8 |
| 20260510224019 | 68 | 335 | 2.0 | 2.0 | 0.00 | 0.00 | 0.00 | 29 | 1021.8 |
| 20260510223517 | 68 | 146 | 1.0 | 3.0 | 0.00 | 0.00 | 0.00 | 28 | 1021.8 |
| 20260510223014 | 68 | 172 | 0.0 | 2.0 | 0.00 | 0.00 | 0.00 | 30 | 1021.7 |
| 20260510222512 | 68 | 270 | 1.0 | 2.0 | 0.00 | 0.00 | 0.00 | 29 | 1021.9 |
| 20260510222008 | 68 | 224 | 0.0 | 4.0 | 0.00 | 0.00 | 0.00 | 28 | 1021.9 |
| 20260510221503 | 68 | 259 | 0.0 | 1.0 | 0.00 | 0.00 | 0.00 | 30 | 1021.7 |
| 20260510220959 | 68 | 337 | 1.0 | 2.0 | 0.00 | 0.00 | 0.00 | 29 | 1021.6 |
| 20260510220455 | 68 | 227 | 0.0 | 1.0 | 0.00 | 0.00 | 0.00 | 30 | 1021.7 |
| 20260510215952 | 68 | 241 | 1.0 | 3.0 | 0.00 | 0.00 | 0.00 | 31 | 1021.7 |
| 20260510215450 | 68 | 353 | 1.0 | 3.0 | 0.00 | 0.00 | 0.00 | 29 | 1021.4 |
| 20260510214948 | 68 | 274 | 1.0 | 3.0 | 0.00 | 0.00 | 0.00 | 29 | 1021.4 |
| 20260510214444 | 68 | 357 | 3.0 | 4.0 | 0.00 | 0.00 | 0.00 | 30 | 1021.5 |
| 20260510213941 | 69 | 290 | 2.0 | 2.0 | 0.00 | 0.00 | 0.00 | 29 | 1021.6 |
| 20260510213438 | 68 | 282 | 0.0 | 1.0 | 0.00 | 0.00 | 0.00 | 30 | 1021.5 |
| 20260510212934 | 68 | 68 | 0.0 | 3.0 | 0.00 | 0.00 | 0.00 | 30 | 1021.4 |
| 20260510212431 | 68 | 336 | 1.0 | 3.0 | 0.00 | 0.00 | 0.00 | 29 | 1021.4 |
| 20260510211927 | 69 | 17 | 3.0 | 4.0 | 0.00 | 0.00 | 0.00 | 27 | 1021.5 |
| 20260510211420 | 69 | 305 | 0.0 | 0.0 | 0.00 | 0.00 | 0.00 | 30 | 1021.5 |
| 20260510210919 | 69 | 339 | 2.0 | 3.0 | 0.00 | 0.00 | 0.00 | 29 | 1021.4 |
| 20260510210414 | 69 | 297 | 2.0 | 8.0 | 0.00 | 0.00 | 0.00 | 27 | 1021.6 |
| 20260510205913 | 69 | 205 | 2.0 | 4.0 | 0.00 | 0.00 | 0.00 | 27 | 1021.6 |
| 20260510205409 | 69 | 210 | 1.0 | 2.0 | 0.00 | 0.00 | 0.00 | 31 | 1021.8 |
| 20260510204905 | 68 | 241 | 1.0 | 2.0 | 0.00 | 0.00 | 0.00 | 31 | 1021.7 |
| 20260510204402 | 67 | 9 | 2.0 | 3.0 | 0.00 | 0.00 | 0.00 | 29 | 1021.7 |
| 20260510203858 | 66 | 332 | 2.0 | 2.0 | 0.00 | 0.00 | 0.00 | 30 | 1021.8 |
| 20260510203356 | 66 | 298 | 0.0 | 0.0 | 0.00 | 0.00 | 0.00 | 31 | 1022.0 |
| 20260510202850 | 67 | 347 | 1.0 | 3.0 | 0.00 | 0.00 | 0.00 | 30 | 1022.0 |
| 20260510202346 | 66 | 279 | 2.0 | 3.0 | 0.00 | 0.00 | 0.00 | 32 | 1022.0 |
| 20260510201843 | 66 | 306 | 1.0 | 2.0 | 0.00 | 0.00 | 0.00 | 30 | 1022.0 |
| 20260510201340 | 66 | 248 | 2.0 | 2.0 | 0.00 | 0.00 | 0.00 | 31 | 1022.2 |
| 20260510200837 | 66 | 331 | 2.0 | 3.0 | 0.00 | 0.00 | 0.00 | 31 | 1022.1 |
| 20260510200335 | 66 | 318 | 1.0 | 2.0 | 0.00 | 0.00 | 0.00 | 30 | 1021.9 |
| 20260510195830 | 66 | 231 | 0.0 | 1.0 | 0.00 | 0.00 | 0.00 | 31 | 1022.2 |
| 20260510195327 | 66 | 217 | 2.0 | 4.0 | 0.00 | 0.00 | 0.00 | 29 | 1022.3 |
| 20260510194823 | 66 | 292 | 0.0 | 2.0 | 0.00 | 0.00 | 0.00 | 31 | 1022.2 |
| 20260510194319 | 66 | 304 | 0.0 | 1.0 | 0.00 | 0.00 | 0.00 | 30 | 1022.3 |
| 20260510193815 | 66 | 250 | 0.0 | 1.0 | 0.00 | 0.00 | 0.00 | 30 | 1022.4 |
| 20260510193310 | 67 | 279 | 2.0 | 3.0 | 0.00 | 0.00 | 0.00 | 29 | 1022.4 |
| 20260510192806 | 66 | 230 | 0.0 | 0.0 | 0.00 | 0.00 | 0.00 | 33 | 1022.5 |
| 20260510192301 | 66 | 272 | 0.0 | 1.0 | 0.00 | 0.00 | 0.00 | 30 | 1022.4 |
| 20260510191757 | 66 | 281 | 2.0 | 3.0 | 0.00 | 0.00 | 0.00 | 30 | 1022.5 |
| 20260510191254 | 66 | 241 | 0.0 | 2.0 | 0.00 | 0.00 | 0.00 | 31 | 1022.6 |
| 20260510190752 | 66 | 309 | 1.0 | 1.0 | 0.00 | 0.00 | 0.00 | 31 | 1022.3 |
| 20260510190248 | 67 | 252 | 0.0 | 1.0 | 0.00 | 0.00 | 0.00 | 31 | 1022.5 |
| 20260510185744 | 67 | 224 | 0.0 | 2.0 | 0.00 | 0.00 | 0.00 | 30 | 1022.5 |
| 20260510185244 | 67 | 225 | 0.0 | 2.0 | 0.00 | 0.00 | 0.00 | 30 | 1022.5 |
| 20260510184740 | 67 | 273 | 0.0 | 6.0 | 0.00 | 0.00 | 0.00 | 30 | 1022.2 |
| 20260510184237 | 67 | 264 | 0.0 | 1.0 | 0.00 | 0.00 | 0.00 | 32 | 1022.2 |
| 20260510183737 | 66 | 15 | 4.0 | 4.0 | 0.00 | 0.00 | 0.00 | 31 | 1022.3 |
| 20260510183232 | 66 | 255 | 0.0 | 2.0 | 0.00 | 0.00 | 0.00 | 31 | 1022.4 |
| 20260510182729 | 65 | 186 | 2.0 | 3.0 | 0.00 | 0.00 | 0.00 | 31 | 1022.2 |
| 20260510182224 | 65 | 6 | 2.0 | 3.0 | 0.00 | 0.00 | 0.00 | 30 | 1022.2 |
| 20260510181721 | 66 | 268 | 0.0 | 3.0 | 0.00 | 0.00 | 0.00 | 30 | 1022.3 |
| 20260510181219 | 66 | 333 | 1.0 | 2.0 | 0.00 | 0.00 | 0.00 | 31 | 1022.4 |
| 20260510180714 | 66 | 190 | 0.0 | 1.0 | 0.00 | 0.00 | 0.00 | 31 | 1022.7 |
| 20260510180212 | 66 | 187 | 2.0 | 4.0 | 0.00 | 0.00 | 0.00 | 31 | 1022.5 |
| 20260510175708 | 66 | 211 | 0.0 | 0.0 | 0.00 | 0.00 | 0.00 | 32 | 1022.4 |
| 20260510175204 | 66 | 347 | 1.0 | 1.0 | 0.00 | 0.00 | 0.00 | 33 | 1022.5 |
| 20260510174701 | 66 | 179 | 1.0 | 3.0 | 0.00 | 0.00 | 0.00 | 32 | 1022.8 |
| 20260510174159 | 66 | 21 | 3.0 | 4.0 | 0.00 | 0.00 | 0.00 | 31 | 1022.5 |
| 20260510173654 | 66 | 251 | 0.0 | 2.0 | 0.00 | 0.00 | 0.00 | 33 | 1022.6 |
| 20260510173151 | 66 | 235 | 0.0 | 2.0 | 0.00 | 0.00 | 0.00 | 30 | 1022.5 |
| 20260510172646 | 66 | 298 | 1.0 | 1.0 | 0.00 | 0.00 | 0.00 | 31 | 1022.5 |
| 20260510172143 | 67 | 216 | 0.0 | 2.0 | 0.00 | 0.00 | 0.00 | 30 | 1022.4 |
| 20260510171639 | 67 | 24 | 2.0 | 3.0 | 0.00 | 0.00 | 0.00 | 32 | 1022.4 |
| 20260510171137 | 66 | 178 | 3.0 | 4.0 | 0.00 | 0.00 | 0.00 | 31 | 1022.5 |
| 20260510170633 | 66 | 184 | 2.0 | 4.0 | 0.00 | 0.00 | 0.00 | 29 | 1022.5 |
| 20260510170130 | 67 | 290 | 2.0 | 4.0 | 0.00 | 0.00 | 0.00 | 29 | 1022.4 |
| 20260510165625 | 66 | 220 | 0.0 | 3.0 | 0.00 | 0.00 | 0.00 | 29 | 1022.4 |
| 20260510165121 | 66 | 222 | 0.0 | 2.0 | 0.00 | 0.00 | 0.00 | 31 | 1022.4 |
| 20260510164620 | 65 | 309 | 2.0 | 3.0 | 0.00 | 0.00 | 0.00 | 30 | 1022.2 |
| 20260510164116 | 65 | 238 | 4.0 | 6.0 | 0.00 | 0.00 | 0.00 | 28 | 1022.2 |
| 20260510163611 | 64 | 14 | 3.0 | 4.0 | 0.00 | 0.00 | 0.00 | 30 | 1022.0 |
| 20260510163108 | 65 | 32 | 2.0 | 4.0 | 0.00 | 0.00 | 0.00 | 29 | 1022.3 |
| 20260510162608 | 64 | 226 | 1.0 | 3.0 | 0.00 | 0.00 | 0.00 | 31 | 1022.3 |
| 20260510162104 | 64 | 244 | 1.0 | 4.0 | 0.00 | 0.00 | 0.00 | 35 | 1022.3 |
| 20260510161600 | 63 | 205 | 1.0 | 2.0 | 0.00 | 0.00 | 0.00 | 33 | 1022.1 |
| 20260510161058 | 63 | 195 | 2.0 | 3.0 | 0.00 | 0.00 | 0.00 | 32 | 1022.2 |
| 20260510160555 | 62 | 193 | 3.0 | 7.0 | 0.00 | 0.00 | 0.00 | 31 | 1022.3 |
| 20260510160054 | 62 | 170 | 1.0 | 4.0 | 0.00 | 0.00 | 0.00 | 32 | 1022.3 |
| 20260510155550 | 62 | 50 | 1.0 | 4.0 | 0.00 | 0.00 | 0.00 | 33 | 1022.4 |
| 20260510155047 | 62 | 178 | 0.0 | 1.0 | 0.00 | 0.00 | 0.00 | 34 | 1022.3 |
| 20260510154542 | 62 | 330 | 2.0 | 2.0 | 0.00 | 0.00 | 0.00 | 33 | 1022.3 |
| 20260510154038 | 62 | 349 | 1.0 | 4.0 | 0.00 | 0.00 | 0.00 | 33 | 1022.4 |
| 20260510153533 | 62 | 216 | 0.0 | 1.0 | 0.00 | 0.00 | 0.00 | 35 | 1022.3 |
| 20260510153031 | 61 | 223 | 2.0 | 3.0 | 0.00 | 0.00 | 0.00 | 34 | 1022.2 |
| 20260510152527 | 62 | 220 | 2.0 | 4.0 | 0.00 | 0.00 | 0.00 | 34 | 1021.9 |
| 20260510152024 | 61 | 231 | 0.0 | 1.0 | 0.00 | 0.00 | 0.00 | 37 | 1021.6 |
| 20260510151520 | 60 | 226 | 0.0 | 2.0 | 0.00 | 0.00 | 0.00 | 38 | 1021.8 |
| 20260510151018 | 60 | 182 | 2.0 | 6.0 | 0.00 | 0.00 | 0.00 | 34 | 1022.0 |
| 20260510150513 | 60 | 116 | 3.0 | 4.0 | 0.00 | 0.00 | 0.00 | 34 | 1021.7 |
| 20260510150009 | 60 | 229 | 0.0 | 2.0 | 0.00 | 0.00 | 0.00 | 35 | 1021.8 |
| 20260510145506 | 60 | 184 | 2.0 | 3.0 | 0.00 | 0.00 | 0.00 | 35 | 1021.9 |
| 20260510145002 | 60 | 151 | 2.0 | 4.0 | 0.00 | 0.00 | 0.00 | 35 | 1021.9 |
| 20260510144459 | 60 | 218 | 1.0 | 3.0 | 0.00 | 0.00 | 0.00 | 37 | 1022.0 |
| 20260510143955 | 60 | 226 | 0.0 | 1.0 | 0.00 | 0.00 | 0.00 | 39 | 1021.9 |
| 20260510143451 | 60 | 232 | 0.0 | 1.0 | 0.00 | 0.00 | 0.00 | 38 | 1021.8 |
| 20260510142947 | 59 | 202 | 0.0 | 2.0 | 0.00 | 0.00 | 0.00 | 41 | 1021.8 |
| 20260510142444 | 59 | 258 | 0.0 | 3.0 | 0.00 | 0.00 | 0.00 | 39 | 1022.1 |
| 20260510141941 | 58 | 202 | 0.0 | 0.0 | 0.00 | 0.00 | 0.00 | 40 | 1022.1 |
| 20260510141438 | 58 | 200 | 0.0 | 1.0 | 0.00 | 0.00 | 0.00 | 40 | 1022.0 |
| 20260510140935 | 58 | 305 | 0.0 | 0.0 | 0.00 | 0.00 | 0.00 | 41 | 1021.7 |
| 20260510140431 | 57 | 239 | 0.0 | 1.0 | 0.00 | 0.00 | 0.00 | 43 | 1021.7 |
| 20260510135930 | 57 | 311 | 0.0 | 0.0 | 0.00 | 0.00 | 0.00 | 42 | 1021.7 |
| 20260510135426 | 57 | 193 | 1.0 | 1.0 | 0.00 | 0.00 | 0.00 | 43 | 1021.7 |
| 20260510134924 | 57 | 241 | 1.0 | 1.0 | 0.00 | 0.00 | 0.00 | 42 | 1021.6 |
| 20260510134420 | 57 | 170 | 1.0 | 1.0 | 0.00 | 0.00 | 0.00 | 42 | 1021.8 |
| 20260510133916 | 56 | 239 | 0.0 | 0.0 | 0.00 | 0.00 | 0.00 | 40 | 1021.6 |
| 20260510133413 | 56 | 308 | 0.0 | 0.0 | 0.00 | 0.00 | 0.00 | 40 | 1021.6 |
| 20260510132908 | 56 | 347 | 1.0 | 1.0 | 0.00 | 0.00 | 0.00 | 40 | 1021.6 |
| 20260510132407 | 56 | 166 | 2.0 | 3.0 | 0.00 | 0.00 | 0.00 | 40 | 1021.3 |
| 20260510131903 | 56 | 290 | 1.0 | 2.0 | 0.00 | 0.00 | 0.00 | 40 | 1021.4 |
| 20260510131401 | 56 | 152 | 0.0 | 2.0 | 0.00 | 0.00 | 0.00 | 40 | 1021.3 |
| 20260510130857 | 56 | 341 | 1.0 | 2.0 | 0.00 | 0.00 | 0.00 | 40 | 1021.0 |
| 20260510130354 | 56 | 259 | 0.0 | 0.0 | 0.00 | 0.00 | 0.00 | 42 | 1021.2 |
| 20260510125851 | 56 | 220 | 1.0 | 2.0 | 0.00 | 0.00 | 0.00 | 39 | 1021.1 |
| 20260510125347 | 56 | 15 | 1.0 | 2.0 | 0.00 | 0.00 | 0.00 | 39 | 1021.2 |
| 20260510124844 | 56 | 234 | 1.0 | 2.0 | 0.00 | 0.00 | 0.00 | 38 | 1021.2 |
| 20260510124340 | 56 | 190 | 0.0 | 2.0 | 0.00 | 0.00 | 0.00 | 39 | 1021.2 |
| 20260510123836 | 56 | 212 | 0.0 | 1.0 | 0.00 | 0.00 | 0.00 | 39 | 1020.8 |
| 20260510123332 | 56 | 331 | 2.0 | 2.0 | 0.00 | 0.00 | 0.00 | 38 | 1020.5 |
| 20260510122829 | 56 | 214 | 0.0 | 0.0 | 0.00 | 0.00 | 0.00 | 39 | 1020.3 |
| 20260510122324 | 56 | 274 | 0.0 | 3.0 | 0.00 | 0.00 | 0.00 | 39 | 1020.4 |
| 20260510121821 | 56 | 324 | 0.0 | 1.0 | 0.00 | 0.00 | 0.00 | 40 | 1020.3 |
| 20260510121319 | 56 | 334 | 2.0 | 3.0 | 0.00 | 0.00 | 0.00 | 39 | 1020.1 |
| 20260510120816 | 56 | 284 | 1.0 | 3.0 | 0.00 | 0.00 | 0.00 | 38 | 1020.0 |
| 20260510120312 | 56 | 357 | 0.0 | 2.0 | 0.00 | 0.00 | 0.00 | 38 | 1019.6 |
| 20260510115808 | 56 | 265 | 0.0 | 3.0 | 0.00 | 0.00 | 0.00 | 38 | 1019.6 |
| 20260510115307 | 56 | 330 | 2.0 | 3.0 | 0.00 | 0.00 | 0.00 | 38 | 1019.5 |
| 20260510114801 | 57 | 228 | 0.0 | 0.0 | 0.00 | 0.00 | 0.00 | 38 | 1019.5 |
| 20260510114259 | 57 | 224 | 0.0 | 1.0 | 0.00 | 0.00 | 0.00 | 38 | 1019.2 |
| 20260510113753 | 57 | 172 | 1.0 | 6.0 | 0.00 | 0.00 | 0.00 | 36 | 1019.1 |
| 20260510113251 | 57 | 223 | 0.0 | 1.0 | 0.00 | 0.00 | 0.00 | 38 | 1019.2 |
| 20260510112747 | 57 | 281 | 1.0 | 2.0 | 0.00 | 0.00 | 0.00 | 39 | 1019.1 |
| 20260510112244 | 57 | 175 | 1.0 | 2.0 | 0.00 | 0.00 | 0.00 | 38 | 1019.1 |
| 20260510111740 | 57 | 119 | 0.0 | 3.0 | 0.00 | 0.00 | 0.00 | 38 | 1019.0 |
| 20260510111237 | 57 | 191 | 1.0 | 3.0 | 0.00 | 0.00 | 0.00 | 37 | 1019.0 |
| 20260510110736 | 58 | 236 | 0.0 | 1.0 | 0.00 | 0.00 | 0.00 | 38 | 1018.8 |
| 20260510110235 | 58 | 175 | 0.0 | 1.0 | 0.00 | 0.00 | 0.00 | 38 | 1018.9 |
| 20260510105734 | 58 | 231 | 0.0 | 1.0 | 0.00 | 0.00 | 0.00 | 38 | 1018.9 |
| 20260510105229 | 58 | 233 | 0.0 | 2.0 | 0.00 | 0.00 | 0.00 | 38 | 1019.1 |
| 20260510104726 | 58 | 232 | 1.0 | 1.0 | 0.00 | 0.00 | 0.00 | 37 | 1018.7 |
| 20260510104224 | 58 | 164 | 2.0 | 2.0 | 0.00 | 0.00 | 0.00 | 38 | 1018.6 |
| 20260510103720 | 58 | 236 | 1.0 | 4.0 | 0.00 | 0.00 | 0.00 | 38 | 1018.7 |
| 20260510103217 | 58 | 196 | 0.0 | 1.0 | 0.00 | 0.00 | 0.00 | 39 | 1018.6 |
| 20260510102717 | 58 | 183 | 0.0 | 1.0 | 0.00 | 0.00 | 0.00 | 39 | 1018.5 |
| 20260510102212 | 58 | 217 | 1.0 | 2.0 | 0.00 | 0.00 | 0.00 | 41 | 1018.3 |
| 20260510101710 | 58 | 197 | 3.0 | 3.0 | 0.00 | 0.00 | 0.00 | 42 | 1018.3 |
| 20260510101209 | 59 | 195 | 1.0 | 2.0 | 0.00 | 0.00 | 0.00 | 43 | 1018.2 |
| 20260510100704 | 59 | 285 | 0.0 | 2.0 | 0.00 | 0.00 | 0.00 | 43 | 1018.0 |
| 20260510100202 | 59 | 217 | 0.0 | 3.0 | 0.00 | 0.00 | 0.00 | 42 | 1017.9 |
| 20260510095657 | 59 | 177 | 0.0 | 3.0 | 0.00 | 0.00 | 0.00 | 42 | 1017.7 |
| 20260510095153 | 59 | 301 | 0.0 | 2.0 | 0.00 | 0.00 | 0.00 | 41 | 1017.8 |
| 20260510094651 | 59 | 240 | 1.0 | 3.0 | 0.00 | 0.00 | 0.00 | 41 | 1017.6 |
| 20260510094148 | 59 | 200 | 1.0 | 1.0 | 0.00 | 0.00 | 0.00 | 40 | 1017.8 |
| 20260510093643 | 60 | 186 | 0.0 | 4.0 | 0.00 | 0.00 | 0.00 | 40 | 1017.7 |
| 20260510093141 | 60 | 188 | 1.0 | 3.0 | 0.00 | 0.00 | 0.00 | 39 | 1017.9 |
| 20260510092637 | 60 | 288 | 0.0 | 4.0 | 0.00 | 0.00 | 0.00 | 41 | 1017.6 |
| 20260510092133 | 60 | 112 | 1.0 | 3.0 | 0.00 | 0.00 | 0.00 | 42 | 1017.4 |
| 20260510091629 | 60 | 326 | 2.0 | 3.0 | 0.00 | 0.00 | 0.00 | 42 | 1017.2 |
| 20260510091125 | 60 | 242 | 1.0 | 2.0 | 0.00 | 0.00 | 0.00 | 44 | 1017.2 |
| 20260510090622 | 60 | 231 | 0.0 | 2.0 | 0.00 | 0.00 | 0.00 | 43 | 1017.4 |
| 20260510090119 | 60 | 185 | 0.0 | 2.0 | 0.00 | 0.00 | 0.00 | 43 | 1017.4 |
| 20260510085613 | 60 | 201 | 1.0 | 2.0 | 0.00 | 0.00 | 0.00 | 42 | 1017.3 |
| 20260510085109 | 61 | 226 | 0.0 | 1.0 | 0.00 | 0.00 | 0.00 | 43 | 1017.3 |
| 20260510084606 | 61 | 317 | 0.0 | 1.0 | 0.00 | 0.00 | 0.00 | 44 | 1017.3 |
| 20260510084102 | 61 | 284 | 0.0 | 3.0 | 0.00 | 0.00 | 0.00 | 45 | 1017.3 |
| 20260510083559 | 61 | 307 | 1.0 | 2.0 | 0.00 | 0.00 | 0.00 | 45 | 1017.2 |
| 20260510083055 | 62 | 189 | 0.0 | 0.0 | 0.00 | 0.00 | 0.00 | 46 | 1016.9 |
| 20260510082552 | 62 | 197 | 3.0 | 3.0 | 0.00 | 0.00 | 0.00 | 46 | 1017.0 |
| 20260510082048 | 62 | 211 | 0.0 | 2.0 | 0.00 | 0.00 | 0.00 | 47 | 1017.0 |
| 20260510081543 | 62 | 209 | 0.0 | 2.0 | 0.00 | 0.00 | 0.00 | 46 | 1016.9 |
| 20260510081038 | 62 | 283 | 1.0 | 4.0 | 0.00 | 0.00 | 0.00 | 47 | 1016.7 |
| 20260510080538 | 62 | 230 | 1.0 | 2.0 | 0.00 | 0.00 | 0.00 | 48 | 1016.4 |
| 20260510080035 | 62 | 226 | 2.0 | 3.0 | 0.00 | 0.00 | 0.00 | 50 | 1016.7 |
| 20260510075532 | 62 | 233 | 0.0 | 1.0 | 0.00 | 0.00 | 0.00 | 49 | 1016.3 |
| 20260510075029 | 62 | 199 | 1.0 | 2.0 | 0.00 | 0.00 | 0.00 | 50 | 1016.3 |
| 20260510074527 | 62 | 211 | 0.0 | 1.0 | 0.00 | 0.00 | 0.00 | 52 | 1016.4 |
| 20260510074022 | 62 | 250 | 0.0 | 2.0 | 0.00 | 0.00 | 0.00 | 53 | 1016.2 |
| 20260510073518 | 62 | 258 | 1.0 | 2.0 | 0.00 | 0.00 | 0.00 | 54 | 1016.3 |
| 20260510073015 | 62 | 226 | 0.0 | 0.0 | 0.00 | 0.00 | 0.00 | 55 | 1016.1 |
| 20260510072507 | 62 | 292 | 0.0 | 0.0 | 0.00 | 0.00 | 0.00 | 54 | 1016.1 |
| 20260510072002 | 63 | 239 | 0.0 | 0.0 | 0.00 | 0.00 | 0.00 | 53 | 1016.2 |
| 20260510071458 | 63 | 230 | 0.0 | 0.0 | 0.00 | 0.00 | 0.00 | 52 | 1016.0 |
| 20260510070957 | 63 | 238 | 0.0 | 0.0 | 0.00 | 0.00 | 0.00 | 52 | 1015.9 |
| 20260510070453 | 64 | 241 | 0.0 | 0.0 | 0.00 | 0.00 | 0.00 | 51 | 1015.8 |
| 20260510065949 | 64 | 204 | 0.0 | 1.0 | 0.00 | 0.00 | 0.00 | 49 | 1015.9 |
| 20260510065446 | 64 | 211 | 0.0 | 2.0 | 0.00 | 0.00 | 0.00 | 50 | 1015.8 |
| 20260510064942 | 63 | 236 | 0.0 | 1.0 | 0.00 | 0.00 | 0.00 | 51 | 1015.6 |
| 20260510064439 | 64 | 248 | 0.0 | 0.0 | 0.00 | 0.00 | 0.00 | 52 | 1015.4 |
| 20260510063936 | 64 | 228 | 0.0 | 0.0 | 0.00 | 0.00 | 0.00 | 52 | 1015.6 |
| 20260510063432 | 64 | 218 | 0.0 | 0.0 | 0.00 | 0.00 | 0.00 | 52 | 1015.5 |
| 20260510062931 | 65 | 229 | 0.0 | 0.0 | 0.00 | 0.00 | 0.00 | 51 | 1015.4 |
| 20260510062430 | 65 | 228 | 0.0 | 0.0 | 0.00 | 0.00 | 0.00 | 50 | 1015.5 |
| 20260510061926 | 65 | 219 | 0.0 | 0.0 | 0.00 | 0.00 | 0.00 | 49 | 1015.3 |
| 20260510061423 | 66 | 260 | 0.0 | 0.0 | 0.00 | 0.00 | 0.00 | 49 | 1015.2 |
| 20260510060919 | 66 | 234 | 0.0 | 0.0 | 0.00 | 0.00 | 0.00 | 48 | 1015.2 |
| 20260510060416 | 66 | 227 | 0.0 | 0.0 | 0.00 | 0.00 | 0.00 | 48 | 1015.3 |
| 20260510055912 | 66 | 221 | 0.0 | 1.0 | 0.00 | 0.00 | 0.00 | 48 | 1015.3 |
| 20260510055408 | 66 | 253 | 0.0 | 1.0 | 0.00 | 0.00 | 0.00 | 47 | 1015.4 |
| 20260510054906 | 66 | 27 | 0.0 | 0.0 | 0.00 | 0.00 | 0.00 | 48 | 1015.5 |
| 20260510054402 | 66 | 229 | 0.0 | 0.0 | 0.00 | 0.00 | 0.00 | 49 | 1015.4 |
| 20260510053857 | 67 | 221 | 0.0 | 1.0 | 0.00 | 0.00 | 0.00 | 47 | 1015.3 |
| 20260510053353 | 67 | 204 | 1.0 | 1.0 | 0.00 | 0.00 | 0.00 | 47 | 1015.3 |
| 20260510052849 | 67 | 216 | 0.0 | 0.0 | 0.00 | 0.00 | 0.00 | 47 | 1015.3 |
| 20260510052345 | 67 | 225 | 0.0 | 1.0 | 0.00 | 0.00 | 0.00 | 46 | 1015.1 |
| 20260510051841 | 67 | 216 | 2.0 | 3.0 | 0.00 | 0.00 | 0.00 | 46 | 1014.5 |
| 20260510051338 | 68 | 247 | 0.0 | 2.0 | 0.00 | 0.00 | 0.00 | 46 | 1014.3 |
| 20260510050835 | 68 | 194 | 2.0 | 3.0 | 0.00 | 0.00 | 0.00 | 45 | 1014.3 |
| 20260510050331 | 68 | 199 | 2.0 | 4.0 | 0.00 | 0.00 | 0.00 | 45 | 1014.1 |
| 20260510045829 | 68 | 230 | 0.0 | 1.0 | 0.00 | 0.01 | 0.01 | 45 | 1014.2 |
| 20260510045325 | 68 | 238 | 1.0 | 1.0 | 0.00 | 0.01 | 0.01 | 44 | 1014.2 |
| 20260510044823 | 68 | 318 | 1.0 | 2.0 | 0.00 | 0.01 | 0.01 | 43 | 1014.0 |
| 20260510044319 | 68 | 233 | 1.0 | 2.0 | 0.00 | 0.01 | 0.01 | 43 | 1013.6 |
| 20260510043816 | 68 | 198 | 2.0 | 6.0 | 0.00 | 0.01 | 0.01 | 43 | 1013.6 |
| 20260510043312 | 69 | 275 | 1.0 | 4.0 | 0.00 | 0.01 | 0.01 | 43 | 1013.6 |
| 20260510042810 | 69 | 226 | 1.0 | 3.0 | 0.00 | 0.01 | 0.01 | 42 | 1013.4 |
| 20260510042307 | 69 | 210 | 3.0 | 3.0 | 0.00 | 0.01 | 0.01 | 43 | 1013.2 |
| 20260510041802 | 69 | 293 | 2.0 | 4.0 | 0.00 | 0.01 | 0.01 | 43 | 1013.1 |
| 20260510041259 | 69 | 172 | 0.0 | 3.0 | 0.00 | 0.01 | 0.01 | 45 | 1013.1 |
| 20260510040757 | 69 | 210 | 0.0 | 2.0 | 0.00 | 0.01 | 0.01 | 47 | 1012.9 |
| 20260510040253 | 69 | 220 | 0.0 | 3.0 | 0.00 | 0.01 | 0.01 | 47 | 1013.0 |
| 20260510035749 | 69 | 8 | 0.0 | 2.0 | 0.00 | 0.01 | 0.01 | 48 | 1013.0 |
| 20260510035245 | 69 | 192 | 0.0 | 2.0 | 0.00 | 0.01 | 0.01 | 48 | 1012.6 |
| 20260510034740 | 68 | 185 | 1.0 | 1.0 | 0.00 | 0.01 | 0.01 | 49 | 1012.5 |
| 20260510034239 | 68 | 226 | 0.0 | 1.0 | 0.00 | 0.01 | 0.01 | 52 | 1012.4 |
| 20260510033734 | 68 | 317 | 1.0 | 1.0 | 0.00 | 0.01 | 0.01 | 53 | 1012.6 |
| 20260510033232 | 68 | 226 | 0.0 | 0.0 | 0.00 | 0.01 | 0.01 | 52 | 1012.5 |
| 20260510032728 | 68 | 224 | 0.0 | 1.0 | 0.00 | 0.01 | 0.01 | 52 | 1012.4 |
| 20260510032224 | 68 | 231 | 0.0 | 0.0 | 0.00 | 0.01 | 0.01 | 52 | 1012.5 |
| 20260510031720 | 68 | 238 | 0.0 | 0.0 | 0.00 | 0.01 | 0.01 | 53 | 1012.5 |
| 20260510031216 | 69 | 247 | 0.0 | 0.0 | 0.00 | 0.01 | 0.01 | 55 | 1012.5 |
| 20260510030715 | 69 | 188 | 0.0 | 0.0 | 0.00 | 0.01 | 0.01 | 52 | 1012.5 |
| 20260510030213 | 69 | 243 | 0.0 | 0.0 | 0.00 | 0.01 | 0.01 | 49 | 1012.3 |
| 20260510025710 | 70 | 225 | 0.0 | 0.0 | 0.00 | 0.01 | 0.01 | 48 | 1012.7 |
| 20260510025208 | 70 | 230 | 0.0 | 0.0 | 0.00 | 0.01 | 0.01 | 47 | 1012.5 |
| 20260510024704 | 70 | 260 | 0.0 | 0.0 | 0.00 | 0.01 | 0.01 | 47 | 1012.4 |
| 20260510024201 | 70 | 240 | 0.0 | 0.0 | 0.00 | 0.01 | 0.01 | 47 | 1012.3 |
| 20260510023656 | 70 | 231 | 0.0 | 0.0 | 0.00 | 0.01 | 0.01 | 46 | 1012.0 |
| 20260510023154 | 70 | 227 | 0.0 | 0.0 | 0.00 | 0.01 | 0.01 | 46 | 1011.6 |
| 20260510022649 | 70 | 269 | 0.0 | 0.0 | 0.00 | 0.01 | 0.01 | 46 | 1011.6 |
| 20260510022144 | 71 | 241 | 0.0 | 0.0 | 0.00 | 0.01 | 0.01 | 46 | 1011.4 |
| 20260510021640 | 71 | 231 | 0.0 | 0.0 | 0.00 | 0.01 | 0.01 | 46 | 1011.4 |
| 20260510021137 | 71 | 236 | 0.0 | 0.0 | 0.00 | 0.01 | 0.01 | 46 | 1011.2 |
| 20260510020631 | 71 | 227 | 0.0 | 0.0 | 0.00 | 0.01 | 0.01 | 46 | 1011.0 |
| 20260510020127 | 71 | 266 | 0.0 | 0.0 | 0.00 | 0.01 | 0.01 | 45 | 1011.1 |
| 20260510015623 | 71 | 215 | 0.0 | 0.0 | 0.00 | 0.01 | 0.01 | 45 | 1010.8 |
| 20260510015119 | 71 | 324 | 0.0 | 0.0 | 0.00 | 0.01 | 0.01 | 44 | 1010.9 |
| 20260510014615 | 72 | 298 | 1.0 | 2.0 | 0.00 | 0.01 | 0.01 | 44 | 1011.0 |
| 20260510014113 | 72 | 268 | 0.0 | 1.0 | 0.00 | 0.01 | 0.01 | 44 | 1010.8 |
| 20260510013608 | 72 | 248 | 0.0 | 2.0 | 0.00 | 0.01 | 0.01 | 44 | 1010.8 |
| 20260510013104 | 72 | 257 | 0.0 | 1.0 | 0.00 | 0.01 | 0.01 | 44 | 1010.9 |
| 20260510012603 | 72 | 308 | 0.0 | 2.0 | 0.00 | 0.01 | 0.01 | 43 | 1010.5 |
| 20260510012100 | 72 | 258 | 0.0 | 0.0 | 0.00 | 0.01 | 0.01 | 43 | 1010.6 |
| 20260510011559 | 72 | 38 | 0.0 | 0.0 | 0.00 | 0.01 | 0.01 | 43 | 1010.6 |
| 20260510011056 | 72 | 263 | 2.0 | 2.0 | 0.00 | 0.01 | 0.01 | 44 | 1010.3 |
| 20260510010552 | 73 | 227 | 0.0 | 0.0 | 0.00 | 0.01 | 0.01 | 44 | 1010.3 |
| 20260510010050 | 73 | 249 | 0.0 | 1.0 | 0.00 | 0.01 | 0.01 | 43 | 1010.2 |
| 20260510005549 | 73 | 210 | 0.0 | 0.0 | 0.00 | 0.01 | 0.01 | 44 | 1010.2 |
| 20260510005048 | 73 | 241 | 0.0 | 0.0 | 0.00 | 0.01 | 0.01 | 43 | 1010.3 |
| 20260510004545 | 74 | 344 | 2.0 | 2.0 | 0.00 | 0.01 | 0.01 | 42 | 1009.9 |
| 20260510004043 | 74 | 314 | 1.0 | 1.0 | 0.00 | 0.01 | 0.01 | 42 | 1010.1 |
| 20260510003539 | 74 | 310 | 0.0 | 2.0 | 0.00 | 0.01 | 0.01 | 42 | 1009.8 |
| 20260510003035 | 74 | 309 | 1.0 | 2.0 | 0.00 | 0.01 | 0.01 | 42 | 1009.7 |
| 20260510002530 | 75 | 14 | 1.0 | 1.0 | 0.00 | 0.01 | 0.01 | 41 | 1009.8 |
| 20260510002028 | 75 | 353 | 0.0 | 1.0 | 0.00 | 0.01 | 0.01 | 41 | 1009.7 |
| 20260510001525 | 75 | 309 | 0.0 | 2.0 | 0.00 | 0.01 | 0.01 | 41 | 1009.5 |
| 20260510001023 | 75 | 14 | 1.0 | 2.0 | 0.00 | 0.01 | 0.01 | 40 | 1009.7 |
| 20260510000518 | 76 | 109 | 0.0 | 4.0 | 0.00 | 0.01 | 0.01 | 40 | 1009.5 |
| 20260510000015 | 76 | 165 | 3.0 | 3.0 | 0.00 | 0.01 | 0.01 | 39 | 1009.3 |
| 20260509235513 | 76 | 241 | 0.0 | 1.0 | 0.00 | 0.01 | 0.01 | 40 | 1009.3 |
| 20260509235009 | 76 | 233 | 0.0 | 1.0 | 0.00 | 0.01 | 0.01 | 40 | 1009.3 |
| 20260509234506 | 77 | 27 | 1.0 | 2.0 | 0.00 | 0.01 | 0.01 | 39 | 1009.5 |
| 20260509234003 | 77 | 346 | 2.0 | 3.0 | 0.00 | 0.01 | 0.01 | 38 | 1009.4 |
| 20260509233500 | 77 | 278 | 0.0 | 1.0 | 0.00 | 0.01 | 0.01 | 38 | 1009.1 |
| 20260509232956 | 77 | 359 | 0.0 | 2.0 | 0.00 | 0.01 | 0.01 | 37 | 1009.1 |
| 20260509232454 | 77 | 203 | 0.0 | 1.0 | 0.00 | 0.01 | 0.01 | 37 | 1009.2 |
| 20260509231949 | 78 | 273 | 0.0 | 1.0 | 0.00 | 0.01 | 0.01 | 36 | 1009.2 |
| 20260509231446 | 78 | 259 | 1.0 | 3.0 | 0.00 | 0.01 | 0.01 | 35 | 1009.1 |
| 20260509230945 | 80 | 351 | 3.0 | 4.0 | 0.00 | 0.01 | 0.01 | 33 | 1009.2 |